Time;durP1;ratioP1;P1;durP2;ratioP2;P2;SDS_P1;SDS_P2;PMS_P1;PMS_P2;Temp;Humidity;BMP_temperature;BMP_pressure;BME280_temperature;BME280_humidity;BME280_pressure;Samples;Min_cycle;Max_cycle;Signal;HPM_P1;HPM_P2
2024/01/15 08:57:30;;;;;;;3.30;0.70;;;3.00;99.90;;;;;;4879900;29;20230;-80
2024/01/15 08:59:58;;;;;;;1.23;0.73;;;3.00;99.90;;;;;;4883019;29;20688;-81
2024/01/15 09:02:25;;;;;;;4.60;1.20;;;3.10;99.90;;;;;;4884274;29;20227;-80
2024/01/15 09:04:52;;;;;;;1.80;0.87;;;3.20;99.90;;;;;;4882117;29;20235;-76
2024/01/15 09:07:19;;;;;;;0.80;0.40;;;3.10;99.90;;;;;;4881719;29;20560;-81
2024/01/15 09:09:45;;;;;;;4.20;0.50;;;2.90;99.90;;;;;;4886096;29;20216;-83
2024/01/15 09:12:15;;;;;;;1.00;0.80;;;3.00;99.90;;;;;;4891806;29;20293;-82
2024/01/15 09:14:43;;;;;;;0.60;0.30;;;3.00;99.90;;;;;;4881594;29;20203;-82
2024/01/15 09:17:10;;;;;;;1.47;0.50;;;2.90;99.90;;;;;;4899940;29;20588;-79
2024/01/15 09:19:38;;;;;;;2.10;0.57;;;3.00;99.90;;;;;;4900267;29;20298;-81
2024/01/15 09:22:05;;;;;;;0.77;0.50;;;2.90;99.90;;;;;;4900073;29;20207;-79
2024/01/15 09:24:32;;;;;;;2.03;0.30;;;2.90;99.90;;;;;;4899515;29;20329;-78
2024/01/15 09:26:59;;;;;;;3.80;0.40;;;2.90;99.90;;;;;;4900391;29;20214;-80
2024/01/15 09:29:27;;;;;;;1.23;0.40;;;2.80;99.90;;;;;;4900336;29;20217;-79
2024/01/15 09:31:55;;;;;;;1.60;0.60;;;2.80;99.90;;;;;;4900452;29;20241;-81
2024/01/15 09:34:22;;;;;;;3.87;0.60;;;2.80;99.90;;;;;;4900319;29;20585;-78
2024/01/15 09:36:49;;;;;;;3.90;0.77;;;2.90;99.90;;;;;;4900320;29;20206;-79
2024/01/15 09:39:16;;;;;;;4.10;0.57;;;3.00;99.90;;;;;;4900011;29;20546;-79
2024/01/15 09:41:44;;;;;;;2.90;0.60;;;3.10;99.90;;;;;;4900287;29;20241;-79
2024/01/15 09:44:12;;;;;;;1.73;0.67;;;3.10;99.90;;;;;;4899881;29;20238;-79
2024/01/15 09:46:41;;;;;;;2.57;0.70;;;3.30;99.90;;;;;;4899998;29;20301;-79
2024/01/15 09:49:09;;;;;;;2.00;0.50;;;3.30;99.90;;;;;;4899838;29;20211;-80
2024/01/15 09:51:37;;;;;;;0.80;0.40;;;3.20;99.90;;;;;;4899965;29;20216;-81
2024/01/15 09:54:05;;;;;;;2.33;1.53;;;3.30;99.90;;;;;;4899633;29;20566;-80
2024/01/15 09:56:32;;;;;;;1.07;0.30;;;3.30;99.90;;;;;;4899452;29;20218;-79
2024/01/15 09:58:59;;;;;;;2.00;0.50;;;3.50;99.90;;;;;;4899748;29;20297;-80
2024/01/15 10:01:27;;;;;;;1.40;0.77;;;3.40;99.90;;;;;;4899792;29;20218;-79
2024/01/15 10:03:55;;;;;;;1.90;0.43;;;3.40;99.90;;;;;;4899544;29;20230;-79
2024/01/15 10:06:24;;;;;;;5.43;0.40;;;3.40;99.90;;;;;;4900062;29;20234;-79
2024/01/15 10:08:52;;;;;;;0.97;0.40;;;3.40;99.90;;;;;;4899632;29;20250;-79
2024/01/15 10:11:19;;;;;;;0.63;0.30;;;3.60;99.90;;;;;;4899442;29;20262;-80
2024/01/15 10:13:47;;;;;;;1.67;0.50;;;3.60;99.90;;;;;;4899273;29;20234;-79
2024/01/15 10:16:14;;;;;;;0.60;0.30;;;3.70;99.90;;;;;;4899550;29;20246;-80
2024/01/15 10:18:40;;;;;;;3.23;0.60;;;3.70;99.90;;;;;;4899237;29;20561;-81
2024/01/15 10:21:08;;;;;;;2.73;0.50;;;3.70;99.90;;;;;;4899577;29;20249;-80
2024/01/15 10:23:37;;;;;;;0.90;0.40;;;3.90;99.90;;;;;;4899451;29;20238;-79
2024/01/15 10:26:04;;;;;;;0.40;0.20;;;3.90;99.90;;;;;;4899402;29;20234;-80
2024/01/15 10:28:31;;;;;;;1.20;0.40;;;3.90;99.90;;;;;;4899204;29;20222;-81
2024/01/15 10:30:59;;;;;;;2.80;0.50;;;3.90;99.90;;;;;;4897852;29;20301;-81
2024/01/15 10:33:27;;;;;;;2.70;0.70;;;3.90;99.90;;;;;;4898936;29;20693;-79
2024/01/15 10:35:55;;;;;;;2.77;0.50;;;4.00;99.90;;;;;;4898179;29;20297;-79
2024/01/15 10:38:22;;;;;;;2.20;0.60;;;3.90;99.90;;;;;;4899070;29;20633;-79
2024/01/15 10:40:53;;;;;;;1.77;0.90;;;4.00;99.90;;;;;;4899395;29;20216;-79
2024/01/15 10:43:20;;;;;;;1.53;0.60;;;4.00;99.90;;;;;;4898906;29;20226;-79
2024/01/15 10:45:47;;;;;;;2.30;0.70;;;3.90;99.90;;;;;;4899073;29;20238;-80
2024/01/15 10:48:15;;;;;;;1.83;0.50;;;4.00;99.90;;;;;;4898926;29;20296;-78
2024/01/15 10:50:42;;;;;;;1.20;0.40;;;3.90;99.90;;;;;;4898877;29;20618;-79
2024/01/15 10:53:10;;;;;;;4.20;0.60;;;4.00;99.90;;;;;;4898741;29;20234;-79
2024/01/15 10:55:39;;;;;;;2.80;0.60;;;4.00;99.90;;;;;;4898590;29;20329;-79
2024/01/15 10:58:17;;;;;;;0.83;0.50;;;4.10;99.90;;;;;;5151821;27;20539;-80
2024/01/15 11:00:44;;;;;;;1.40;0.37;;;4.20;99.90;;;;;;5152294;27;20287;-78
2024/01/15 11:03:12;;;;;;;1.63;0.43;;;4.20;99.90;;;;;;5152034;27;20226;-78
2024/01/15 11:05:39;;;;;;;1.00;0.40;;;4.20;99.90;;;;;;5151929;27;20291;-78
2024/01/15 11:08:07;;;;;;;3.23;0.50;;;4.20;99.90;;;;;;5151877;27;20675;-79
2024/01/15 11:10:46;;;;;;;9.83;0.60;;;4.40;99.90;;;;;;5152085;27;20211;-78
2024/01/15 11:13:20;;;;;;;0.83;0.43;;;4.60;99.90;;;;;;5151374;27;20224;-78
2024/01/15 11:15:59;;;;;;;0.60;0.40;;;4.70;99.90;;;;;;5151688;27;20204;-79
2024/01/15 11:18:29;;;;;;;0.80;0.47;;;5.00;99.90;;;;;;5151516;27;20203;-78
2024/01/15 11:21:27;;;;;;;0.97;0.50;;;5.20;99.90;;;;;;5151346;27;20646;-80
2024/01/15 11:23:57;;;;;;;2.37;0.50;;;5.20;99.90;;;;;;5147078;27;20655;-79
2024/01/15 11:26:31;;;;;;;1.87;0.50;;;5.30;99.90;;;;;;5151354;27;20278;-79
2024/01/15 11:29:02;;;;;;;1.73;0.47;;;5.40;99.90;;;;;;5151500;27;20203;-78
2024/01/15 11:31:30;;;;;;;0.83;0.40;;;5.30;99.90;;;;;;5151484;27;20665;-78
2024/01/15 11:33:57;;;;;;;2.13;0.40;;;5.20;99.90;;;;;;5151156;27;20227;-80
2024/01/15 11:37:03;;;;;;;13.23;0.63;;;5.20;99.90;;;;;;5151398;27;20255;-78
2024/01/15 11:39:46;;;;;;;1.00;0.30;;;5.10;99.90;;;;;;5151332;27;20200;-80
2024/01/15 11:42:14;;;;;;;4.73;0.57;;;5.10;99.90;;;;;;5150792;27;20205;-80
2024/01/15 11:44:44;;;;;;;0.97;0.20;;;5.20;99.90;;;;;;5151128;27;20208;-78
2024/01/15 11:47:13;;;;;;;3.40;0.53;;;5.10;99.90;;;;;;5151054;27;20295;-80
2024/01/15 11:50:01;;;;;;;1.80;1.10;;;5.10;99.90;;;;;;5151013;27;20200;-78
2024/01/15 11:52:33;;;;;;;5.87;0.63;;;5.20;99.90;;;;;;5151149;27;20259;-78
2024/01/15 11:55:11;;;;;;;2.83;0.53;;;5.20;99.90;;;;;;5150886;27;20228;-78
2024/01/15 11:57:43;;;;;;;0.40;0.30;;;5.30;99.90;;;;;;5150715;27;20314;-79
2024/01/15 12:00:13;;;;;;;0.47;0.30;;;5.30;99.90;;;;;;5150840;27;20696;-79
2024/01/15 12:02:42;;;;;;;0.47;0.20;;;5.40;99.90;;;;;;5151138;27;20636;-79
2024/01/15 12:05:09;;;;;;;2.00;0.33;;;5.20;99.90;;;;;;5150667;27;20227;-78
2024/01/15 12:07:36;;;;;;;2.17;0.20;;;5.10;99.90;;;;;;5148267;27;20300;-77
2024/01/15 12:10:03;;;;;;;1.50;0.40;;;5.00;99.90;;;;;;5131615;27;20297;-76
2024/01/15 12:12:54;;;;;;;2.27;0.30;;;4.90;99.90;;;;;;5132102;27;20248;-77
2024/01/15 12:15:22;;;;;;;1.77;0.63;;;5.00;99.90;;;;;;5131459;27;20209;-77
2024/01/15 12:17:49;;;;;;;2.17;0.43;;;5.00;99.90;;;;;;5134470;27;20227;-76
2024/01/15 12:20:18;;;;;;;2.10;0.40;;;5.10;99.90;;;;;;5135347;27;20626;-79
2024/01/15 12:22:45;;;;;;;0.50;0.40;;;4.90;99.90;;;;;;5131142;27;20301;-84
2024/01/15 12:25:12;;;;;;;0.80;0.20;;;4.90;99.90;;;;;;5114572;28;20225;-78
2024/01/15 12:27:39;;;;;;;2.63;0.40;;;4.80;99.90;;;;;;5117850;27;20189;-75
2024/01/15 12:30:08;;;;;;;3.80;0.60;;;4.70;99.90;;;;;;5134750;27;20315;-79
2024/01/15 12:32:37;;;;;;;6.63;1.83;;;4.70;99.90;;;;;;5133544;27;20248;-77
2024/01/15 12:35:05;;;;;;;1.27;0.50;;;4.70;99.90;;;;;;5132070;27;20287;-74
2024/01/15 12:37:31;;;;;;;0.93;0.30;;;4.80;99.90;;;;;;5133683;27;20225;-76
2024/01/15 12:40:00;;;;;;;6.87;0.67;;;4.80;99.90;;;;;;5133631;27;20227;-73
2024/01/15 12:42:28;;;;;;;1.07;0.40;;;4.80;99.90;;;;;;5132653;27;20273;-74
2024/01/15 12:44:57;;;;;;;1.57;0.30;;;4.90;99.90;;;;;;5135160;27;20292;-76
2024/01/15 12:47:24;;;;;;;1.07;0.30;;;4.90;99.90;;;;;;5136592;27;20697;-73
2024/01/15 12:49:54;;;;;;;3.33;0.30;;;5.00;99.90;;;;;;5126272;27;20205;-73
2024/01/15 12:52:21;;;;;;;2.13;0.37;;;4.80;99.90;;;;;;5133376;27;20220;-75
2024/01/15 12:54:49;;;;;;;2.87;0.67;;;4.70;99.90;;;;;;5132970;27;20204;-74
2024/01/15 12:57:16;;;;;;;0.50;0.30;;;4.60;99.90;;;;;;5133993;27;20235;-76
2024/01/15 12:59:43;;;;;;;0.90;0.40;;;4.50;99.90;;;;;;5134342;27;20299;-78
2024/01/15 13:02:11;;;;;;;0.70;0.20;;;4.50;99.90;;;;;;5133922;27;20612;-77
2024/01/15 13:04:38;;;;;;;0.70;0.40;;;4.40;99.90;;;;;;5131926;27;20197;-76
2024/01/15 13:07:07;;;;;;;2.93;0.50;;;4.50;99.90;;;;;;5133926;27;20260;-74
2024/01/15 13:09:34;;;;;;;3.80;0.43;;;4.60;99.90;;;;;;5131607;27;20205;-78
2024/01/15 13:12:02;;;;;;;0.83;0.40;;;4.80;99.90;;;;;;5113102;28;20212;-76
2024/01/15 13:14:29;;;;;;;1.17;0.40;;;4.90;99.90;;;;;;5129264;27;20207;-75
2024/01/15 13:16:56;;;;;;;3.00;0.37;;;4.90;99.90;;;;;;5133296;27;20256;-75
2024/01/15 13:19:23;;;;;;;2.67;0.40;;;4.90;99.90;;;;;;5133208;27;20212;-77
2024/01/15 13:21:51;;;;;;;0.60;0.50;;;5.00;99.90;;;;;;5134036;27;20264;-79
2024/01/15 13:24:19;;;;;;;1.57;0.70;;;5.00;99.90;;;;;;5129838;27;20247;-75
2024/01/15 13:26:46;;;;;;;1.20;0.70;;;5.10;99.90;;;;;;5133638;27;20295;-76
2024/01/15 13:29:14;;;;;;;0.77;0.30;;;5.00;99.90;;;;;;5133504;27;20193;-76
2024/01/15 13:31:41;;;;;;;3.43;0.90;;;5.00;99.90;;;;;;5134964;27;20201;-75
2024/01/15 13:34:09;;;;;;;1.03;0.40;;;5.00;99.90;;;;;;5130689;27;20217;-77
2024/01/15 13:36:38;;;;;;;1.23;0.33;;;5.00;99.90;;;;;;5134705;27;20719;-74
2024/01/15 13:39:08;;;;;;;2.33;0.80;;;5.00;99.90;;;;;;5131302;27;20194;-74
2024/01/15 13:41:37;;;;;;;1.77;0.50;;;4.90;99.90;;;;;;5134565;27;20197;-76
2024/01/15 13:44:04;;;;;;;4.70;0.50;;;4.80;99.90;;;;;;5129919;27;20717;-77
2024/01/15 13:46:31;;;;;;;3.10;0.30;;;4.80;99.90;;;;;;5134492;27;20287;-74
2024/01/15 13:48:57;;;;;;;6.57;0.50;;;4.90;99.90;;;;;;5134805;27;20258;-76
2024/01/15 13:51:24;;;;;;;2.23;0.87;;;4.80;99.90;;;;;;5134655;27;20203;-74
2024/01/15 13:53:52;;;;;;;2.93;0.83;;;4.80;99.90;;;;;;5129515;27;20311;-73
2024/01/15 13:56:19;;;;;;;0.30;0.20;;;4.80;99.90;;;;;;5134488;27;20257;-75
2024/01/15 13:58:49;;;;;;;0.53;0.30;;;5.00;99.90;;;;;;5134629;27;20231;-81
2024/01/15 14:01:17;;;;;;;0.27;0.20;;;4.50;99.90;;;;;;5135380;27;20208;-83
2024/01/15 14:03:44;;;;;;;0.20;0.10;;;3.90;99.90;;;;;;5135739;27;20221;-80
2024/01/15 14:06:11;;;;;;;0.20;0.00;;;3.50;99.90;;;;;;5135122;27;20211;-81
2024/01/15 14:08:38;;;;;;;0.30;0.10;;;3.00;99.90;;;;;;5134689;27;20296;-77
2024/01/15 14:11:06;;;;;;;0.70;0.20;;;2.90;99.90;;;;;;5134492;27;20659;-80
2024/01/15 14:13:33;;;;;;;0.30;0.30;;;2.70;99.90;;;;;;5134641;27;20228;-81
2024/01/15 14:16:01;;;;;;;1.23;0.60;;;2.70;99.90;;;;;;5134786;27;20283;-82
2024/01/15 14:18:28;;;;;;;0.77;0.20;;;2.60;99.90;;;;;;5134513;27;20282;-80
2024/01/15 14:20:55;;;;;;;0.40;0.30;;;2.50;99.90;;;;;;5134836;27;20201;-80
2024/01/15 14:23:23;;;;;;;0.63;0.20;;;2.70;99.90;;;;;;5134601;27;20231;-79
2024/01/15 14:25:49;;;;;;;0.70;0.47;;;2.60;99.90;;;;;;5134485;27;20205;-79
2024/01/15 14:28:16;;;;;;;1.00;0.40;;;2.70;99.90;;;;;;5134036;27;20201;-76
2024/01/15 14:30:43;;;;;;;1.30;0.43;;;2.90;99.90;;;;;;5133924;27;20201;-80
2024/01/15 14:33:11;;;;;;;1.23;0.50;;;3.00;99.90;;;;;;5134053;27;20221;-80
2024/01/15 14:35:38;;;;;;;0.70;0.30;;;3.10;99.90;;;;;;5134476;27;20299;-83
2024/01/15 14:38:05;;;;;;;1.47;0.70;;;3.20;99.90;;;;;;5134251;27;20225;-79
2024/01/15 14:40:32;;;;;;;1.43;0.77;;;3.50;99.90;;;;;;5134081;27;20255;-81
2024/01/15 14:42:59;;;;;;;0.90;0.40;;;3.70;99.90;;;;;;5130196;27;20641;-76
2024/01/15 14:45:27;;;;;;;0.60;0.30;;;3.80;99.90;;;;;;5132286;27;20207;-74
2024/01/15 14:47:54;;;;;;;3.03;0.60;;;3.70;99.90;;;;;;5129111;27;20323;-79
2024/01/15 14:50:23;;;;;;;0.53;0.40;;;3.30;99.90;;;;;;5131875;27;20677;-75
2024/01/15 14:52:50;;;;;;;4.00;0.67;;;3.10;99.90;;;;;;5132658;27;20693;-78
2024/01/15 14:55:17;;;;;;;1.60;0.60;;;2.90;99.90;;;;;;5128572;27;20733;-76
2024/01/15 14:57:43;;;;;;;2.37;0.30;;;2.90;99.90;;;;;;5131560;27;20766;-75
2024/01/15 15:00:13;;;;;;;0.60;0.37;;;3.00;99.90;;;;;;5132381;27;20296;-76
2024/01/15 15:02:40;;;;;;;2.73;0.40;;;2.90;99.90;;;;;;5132252;27;20221;-77
2024/01/15 15:05:08;;;;;;;1.13;0.40;;;2.90;99.90;;;;;;5131886;27;20837;-76
2024/01/15 15:07:36;;;;;;;0.73;0.60;;;2.80;99.90;;;;;;5132135;27;20694;-77
2024/01/15 15:10:04;;;;;;;1.10;0.40;;;2.70;99.90;;;;;;5132257;27;20714;-76
2024/01/15 15:12:32;;;;;;;2.80;0.47;;;2.60;99.90;;;;;;5127591;27;20217;-76
2024/01/15 15:14:58;;;;;;;2.03;0.63;;;2.50;99.90;;;;;;5132418;27;20205;-76
2024/01/15 15:17:25;;;;;;;1.00;0.50;;;2.60;99.90;;;;;;5132052;27;20737;-75
2024/01/15 15:19:53;;;;;;;2.53;0.63;;;2.60;99.90;;;;;;5131585;27;20299;-77
2024/01/15 15:22:20;;;;;;;3.03;0.70;;;2.70;99.90;;;;;;5131756;27;20228;-77
2024/01/15 15:24:48;;;;;;;2.10;0.50;;;2.70;99.90;;;;;;5132384;27;20283;-76
2024/01/15 15:27:15;;;;;;;1.90;0.40;;;2.70;99.90;;;;;;5131789;27;20204;-75
2024/01/15 15:29:42;;;;;;;1.77;0.33;;;2.60;99.90;;;;;;5132338;27;20236;-76
2024/01/15 15:32:09;;;;;;;2.57;0.40;;;2.50;99.90;;;;;;5131858;27;20604;-77
2024/01/15 15:34:36;;;;;;;0.80;0.50;;;2.40;99.90;;;;;;5131230;28;20220;-76
2024/01/15 15:37:03;;;;;;;2.30;0.43;;;2.40;99.90;;;;;;5132064;27;20288;-75
2024/01/15 15:39:30;;;;;;;1.33;0.53;;;2.40;99.90;;;;;;5131755;27;20316;-76
2024/01/15 15:41:59;;;;;;;6.13;0.30;;;2.40;99.90;;;;;;5128954;27;20211;-77
2024/01/15 15:44:25;;;;;;;0.67;0.33;;;2.40;99.90;;;;;;5134587;27;20201;-75
2024/01/15 15:46:52;;;;;;;0.30;0.20;;;2.40;99.90;;;;;;5135825;27;20287;-76
2024/01/15 15:49:20;;;;;;;1.10;0.43;;;2.40;99.90;;;;;;5135258;27;20259;-76
2024/01/15 15:51:47;;;;;;;0.67;0.27;;;2.30;99.90;;;;;;5135648;27;20229;-75
2024/01/15 15:54:14;;;;;;;1.60;0.30;;;2.30;99.90;;;;;;5135386;27;20255;-75
2024/01/15 15:56:42;;;;;;;3.60;0.50;;;2.30;99.90;;;;;;5134950;27;20304;-76
2024/01/15 15:59:10;;;;;;;0.60;0.30;;;2.40;99.90;;;;;;5135368;27;20232;-74
2024/01/15 16:01:37;;;;;;;2.20;0.70;;;2.40;99.90;;;;;;5135763;27;20205;-77
2024/01/15 16:04:04;;;;;;;2.00;0.70;;;2.30;99.90;;;;;;5134857;27;20316;-76
2024/01/15 16:06:31;;;;;;;3.13;0.60;;;2.30;99.90;;;;;;5135602;27;20197;-77
2024/01/15 16:08:58;;;;;;;1.87;0.70;;;2.20;99.90;;;;;;5135098;27;20654;-75
2024/01/15 16:11:25;;;;;;;0.40;0.30;;;2.10;99.90;;;;;;5134732;27;20283;-76
2024/01/15 16:13:52;;;;;;;2.37;0.67;;;2.20;99.90;;;;;;5135255;27;20261;-74
2024/01/15 16:16:20;;;;;;;1.00;0.37;;;2.30;99.90;;;;;;5135088;27;20626;-74
2024/01/15 16:18:47;;;;;;;1.70;0.70;;;2.10;99.90;;;;;;5134854;27;20325;-75
2024/01/15 16:21:14;;;;;;;1.20;0.53;;;2.10;99.90;;;;;;5134999;27;20288;-76
2024/01/15 16:23:41;;;;;;;3.20;0.70;;;2.10;99.90;;;;;;5135085;27;20646;-74
2024/01/15 16:26:08;;;;;;;1.73;0.87;;;2.10;99.90;;;;;;5134697;27;20200;-76
2024/01/15 16:28:35;;;;;;;0.97;0.30;;;2.10;99.90;;;;;;5136102;27;20283;-77
2024/01/15 16:31:01;;;;;;;2.83;0.60;;;2.10;99.90;;;;;;5136350;27;20201;-77
2024/01/15 16:33:30;;;;;;;1.23;0.47;;;2.00;99.90;;;;;;5135882;27;20220;-79
2024/01/15 16:35:57;;;;;;;3.20;0.83;;;2.00;99.90;;;;;;5136009;27;20696;-78
2024/01/15 16:38:24;;;;;;;8.57;0.53;;;2.10;99.90;;;;;;5136790;27;20228;-77
2024/01/15 16:40:52;;;;;;;1.83;0.40;;;2.00;99.90;;;;;;5136477;27;20298;-76
2024/01/15 16:43:18;;;;;;;1.60;0.70;;;2.00;99.90;;;;;;5136582;27;20221;-76
2024/01/15 16:45:45;;;;;;;5.70;0.70;;;2.00;99.90;;;;;;5136689;27;20212;-80
2024/01/15 16:48:12;;;;;;;0.80;0.57;;;2.00;99.90;;;;;;5136343;27;20661;-76
2024/01/15 16:50:40;;;;;;;2.40;0.60;;;2.10;99.90;;;;;;5135729;27;20729;-77
2024/01/15 16:53:08;;;;;;;1.13;0.53;;;2.20;99.90;;;;;;5135885;27;20682;-77
2024/01/15 16:55:35;;;;;;;6.33;0.67;;;2.30;99.90;;;;;;5135884;27;20638;-76
2024/01/15 16:58:02;;;;;;;3.63;1.20;;;2.30;99.90;;;;;;5135821;27;20236;-81
2024/01/15 17:00:28;;;;;;;1.03;0.63;;;2.30;99.90;;;;;;5136144;27;20283;-78
2024/01/15 17:02:55;;;;;;;3.33;0.70;;;2.20;99.90;;;;;;5135717;27;20312;-76
2024/01/15 17:05:23;;;;;;;4.47;0.97;;;2.10;99.90;;;;;;5136225;27;20296;-76
2024/01/15 17:07:51;;;;;;;2.17;0.60;;;2.00;99.90;;;;;;5135891;27;20395;-78
2024/01/15 17:10:18;;;;;;;1.27;0.60;;;1.80;99.90;;;;;;5136027;27;20222;-76
2024/01/15 17:12:45;;;;;;;0.57;0.37;;;1.80;99.90;;;;;;5135420;27;20221;-74
2024/01/15 17:15:14;;;;;;;1.90;0.70;;;1.90;99.90;;;;;;5136048;27;20790;-77
2024/01/15 17:17:41;;;;;;;7.93;0.73;;;1.90;99.90;;;;;;5135626;27;20291;-75
2024/01/15 17:20:09;;;;;;;1.27;0.40;;;2.00;99.90;;;;;;5135610;27;20568;-77
2024/01/15 17:22:37;;;;;;;2.00;0.60;;;2.10;99.90;;;;;;5135389;27;20263;-77
2024/01/15 17:25:07;;;;;;;0.90;0.60;;;2.20;99.90;;;;;;5133899;27;20200;-73
2024/01/15 17:27:34;;;;;;;1.20;0.70;;;2.30;99.90;;;;;;5133078;27;20207;-82
2024/01/15 17:30:01;;;;;;;3.93;0.80;;;2.30;99.90;;;;;;5134100;27;20654;-74
2024/01/15 17:32:28;;;;;;;3.80;0.50;;;2.20;99.90;;;;;;5132554;27;20229;-74
2024/01/15 17:34:55;;;;;;;2.40;0.83;;;2.10;99.90;;;;;;5132694;27;20313;-78
2024/01/15 17:37:21;;;;;;;2.50;1.00;;;2.10;99.90;;;;;;5133124;27;20312;-73
2024/01/15 17:39:48;;;;;;;0.90;0.57;;;2.20;99.90;;;;;;5132602;27;20242;-75
2024/01/15 17:42:16;;;;;;;8.63;1.30;;;2.40;99.90;;;;;;5132240;27;20230;-76
2024/01/15 17:44:44;;;;;;;4.80;1.47;;;2.30;99.90;;;;;;5133129;27;20262;-76
2024/01/15 17:47:11;;;;;;;1.73;0.90;;;2.40;99.90;;;;;;5132724;27;20497;-76
2024/01/15 17:49:38;;;;;;;6.90;0.87;;;2.30;99.90;;;;;;5132919;27;20266;-75
2024/01/15 17:52:05;;;;;;;3.33;1.00;;;2.30;99.90;;;;;;5133037;27;20216;-74
2024/01/15 17:54:32;;;;;;;1.63;0.90;;;2.30;99.90;;;;;;5133283;27;20209;-74
2024/01/15 17:56:59;;;;;;;6.97;2.10;;;2.40;99.90;;;;;;5131862;27;20213;-73
2024/01/15 17:59:27;;;;;;;4.73;1.40;;;2.60;99.90;;;;;;5132797;27;20228;-75
2024/01/15 18:01:55;;;;;;;3.10;1.47;;;2.90;99.90;;;;;;5133418;27;20203;-76
2024/01/15 18:04:22;;;;;;;2.20;1.07;;;3.10;99.90;;;;;;5132169;27;20225;-74
2024/01/15 18:06:49;;;;;;;2.53;1.03;;;3.20;99.90;;;;;;5129223;27;20211;-78
2024/01/15 18:09:17;;;;;;;1.53;1.03;;;3.20;99.90;;;;;;5120939;27;20719;-78
2024/01/15 18:11:44;;;;;;;2.00;1.10;;;3.10;99.90;;;;;;5131978;27;20207;-81
2024/01/15 18:14:12;;;;;;;1.87;1.37;;;3.00;99.90;;;;;;5132805;27;20236;-74
2024/01/15 18:16:40;;;;;;;5.60;1.37;;;2.80;99.90;;;;;;5131283;27;20266;-73
2024/01/15 18:19:07;;;;;;;1.87;1.30;;;2.80;99.90;;;;;;5111970;28;20320;-74
2024/01/15 18:21:34;;;;;;;4.40;2.03;;;2.80;99.90;;;;;;5112046;28;20233;-74
2024/01/15 18:24:00;;;;;;;2.77;1.63;;;2.80;99.90;;;;;;5132076;27;20219;-74
2024/01/15 18:26:27;;;;;;;5.80;1.80;;;2.70;99.90;;;;;;5115494;27;20198;-74
2024/01/15 18:28:54;;;;;;;4.43;1.77;;;2.60;99.90;;;;;;5117780;27;20292;-77
2024/01/15 18:31:21;;;;;;;2.07;1.40;;;2.60;99.90;;;;;;5132456;27;20262;-75
2024/01/15 18:33:50;;;;;;;2.43;1.33;;;2.50;99.90;;;;;;5117350;27;20304;-76
2024/01/15 18:36:17;;;;;;;4.00;1.37;;;2.50;99.90;;;;;;5117934;27;20258;-76
2024/01/15 18:38:44;;;;;;;6.73;1.73;;;2.50;99.90;;;;;;5125523;27;20728;-76
2024/01/15 18:41:20;;;;;;;4.30;1.50;;;2.40;99.90;;;;;;5124036;27;20300;-75
2024/01/15 18:43:47;;;;;;;3.13;1.97;;;2.50;99.90;;;;;;5130155;27;20220;-76
2024/01/15 18:46:14;;;;;;;3.57;1.53;;;2.40;99.90;;;;;;5133131;27;20196;-75
2024/01/15 18:48:41;;;;;;;2.10;1.37;;;2.40;99.90;;;;;;5131066;27;20633;-76
2024/01/15 18:51:09;;;;;;;3.63;1.40;;;2.40;99.90;;;;;;5118881;27;20240;-76
2024/01/15 18:53:36;;;;;;;3.13;1.43;;;2.30;99.90;;;;;;5132940;27;20221;-75
2024/01/15 18:56:03;;;;;;;5.57;1.33;;;2.10;99.90;;;;;;5126395;27;20551;-75
2024/01/15 18:58:31;;;;;;;2.77;1.13;;;2.20;99.90;;;;;;5118946;28;20296;-74
2024/01/15 19:00:57;;;;;;;4.57;1.23;;;2.10;99.90;;;;;;5131997;28;20219;-76
2024/01/15 19:03:24;;;;;;;3.30;1.13;;;2.10;99.90;;;;;;5132219;27;20221;-75
2024/01/15 19:05:51;;;;;;;3.50;1.43;;;1.90;99.90;;;;;;5124758;27;20590;-75
2024/01/15 19:08:19;;;;;;;5.67;1.20;;;1.90;99.90;;;;;;5125406;27;20295;-74
2024/01/15 19:10:46;;;;;;;3.70;1.37;;;1.80;99.90;;;;;;5133028;28;20205;-74
2024/01/15 19:13:13;;;;;;;3.87;1.17;;;1.80;99.90;;;;;;5132098;28;20228;-74
2024/01/15 19:15:40;;;;;;;14.00;1.97;;;1.80;99.90;;;;;;5132982;27;20231;-74
2024/01/15 19:18:07;;;;;;;3.73;1.00;;;1.80;99.90;;;;;;5120569;27;20673;-74
2024/01/15 19:20:34;;;;;;;1.97;1.00;;;1.80;99.90;;;;;;5137423;27;20234;-75
2024/01/15 19:23:01;;;;;;;3.53;1.20;;;1.90;99.90;;;;;;5117714;27;20312;-74
2024/01/15 19:25:29;;;;;;;1.37;0.70;;;2.10;99.90;;;;;;5131431;27;20207;-75
2024/01/15 19:27:56;;;;;;;5.30;1.20;;;2.20;99.90;;;;;;5137358;27;20284;-74
2024/01/15 19:30:23;;;;;;;3.77;1.00;;;2.30;99.90;;;;;;5130350;27;20212;-75
2024/01/15 19:32:50;;;;;;;2.63;1.30;;;2.30;99.90;;;;;;5132134;27;20213;-75
2024/01/15 19:35:17;;;;;;;1.27;0.90;;;2.30;99.90;;;;;;5137208;27;20287;-74
2024/01/15 19:37:44;;;;;;;10.43;1.80;;;2.40;99.90;;;;;;5137457;27;20205;-76
2024/01/15 19:40:11;;;;;;;3.20;1.10;;;2.30;99.90;;;;;;5136214;27;20233;-75
2024/01/15 19:42:41;;;;;;;2.53;1.00;;;2.30;99.90;;;;;;5124442;27;20223;-75
2024/01/15 19:45:08;;;;;;;4.30;1.30;;;2.30;99.90;;;;;;5136643;27;20744;-75
2024/01/15 19:47:35;;;;;;;3.00;1.00;;;2.40;99.90;;;;;;5136775;27;20968;-75
2024/01/15 19:50:02;;;;;;;9.03;2.00;;;2.40;99.90;;;;;;5136761;27;20212;-75
2024/01/15 19:52:29;;;;;;;4.93;1.10;;;2.40;99.90;;;;;;5136590;27;20221;-75
2024/01/15 19:54:56;;;;;;;3.97;1.10;;;2.50;99.90;;;;;;5136371;27;20235;-75
2024/01/15 19:57:23;;;;;;;3.20;1.13;;;2.50;99.90;;;;;;5136705;27;20686;-75
2024/01/15 19:59:53;;;;;;;5.30;1.33;;;2.50;99.90;;;;;;5136080;27;20235;-76
2024/01/15 20:02:20;;;;;;;2.73;1.10;;;2.60;99.90;;;;;;5128702;27;20204;-75
2024/01/15 20:04:47;;;;;;;2.57;0.83;;;2.50;99.90;;;;;;5132953;27;20659;-76
2024/01/15 20:07:14;;;;;;;3.90;1.40;;;2.50;99.90;;;;;;5136744;27;20201;-76
2024/01/15 20:09:41;;;;;;;2.00;1.00;;;2.50;99.90;;;;;;5136282;27;20556;-76
2024/01/15 20:12:08;;;;;;;6.70;1.23;;;2.60;99.90;;;;;;5124382;27;20602;-76
2024/01/15 20:14:35;;;;;;;6.70;0.90;;;2.50;99.90;;;;;;5121031;27;20283;-76
2024/01/15 20:17:04;;;;;;;2.63;1.10;;;2.60;99.90;;;;;;5136623;27;20201;-75
2024/01/15 20:19:31;;;;;;;3.47;1.17;;;2.70;99.90;;;;;;5136119;27;20219;-76
2024/01/15 20:21:58;;;;;;;2.57;1.13;;;2.60;99.90;;;;;;5135979;27;20544;-76
2024/01/15 20:24:26;;;;;;;2.67;1.10;;;2.60;99.90;;;;;;5135957;27;20224;-76
2024/01/15 20:26:53;;;;;;;3.00;1.00;;;2.60;99.90;;;;;;5136192;27;20207;-76
2024/01/15 20:29:19;;;;;;;2.57;1.10;;;2.40;99.90;;;;;;5135608;27;20663;-76
2024/01/15 20:31:47;;;;;;;2.50;1.00;;;2.50;99.90;;;;;;5136347;27;20291;-76
2024/01/15 20:34:15;;;;;;;6.73;1.70;;;2.40;99.90;;;;;;5135914;27;20225;-76
2024/01/15 20:36:42;;;;;;;3.17;1.10;;;2.40;99.90;;;;;;5135991;27;20205;-75
2024/01/15 20:39:09;;;;;;;1.70;1.03;;;2.40;99.90;;;;;;5136132;27;20201;-76
2024/01/15 20:41:36;;;;;;;2.87;1.20;;;2.40;99.90;;;;;;5135887;27;20205;-76
2024/01/15 20:44:03;;;;;;;3.60;1.10;;;2.40;99.90;;;;;;5135664;27;20308;-76
2024/01/15 20:46:30;;;;;;;3.17;0.77;;;2.40;99.90;;;;;;5135903;27;20559;-75
2024/01/15 20:48:57;;;;;;;3.67;1.30;;;2.40;99.90;;;;;;5135512;27;20209;-74
2024/01/15 20:51:25;;;;;;;2.97;0.83;;;2.30;99.90;;;;;;5135791;27;20303;-75
2024/01/15 20:53:53;;;;;;;2.37;1.40;;;2.30;99.90;;;;;;5135735;27;20213;-75
2024/01/15 20:56:20;;;;;;;3.70;1.40;;;2.30;99.90;;;;;;5135181;27;20212;-75
2024/01/15 20:58:47;;;;;;;4.30;1.40;;;2.40;99.90;;;;;;5122061;27;20201;-76
2024/01/15 21:01:14;;;;;;;6.00;1.13;;;2.40;99.90;;;;;;5135149;27;20592;-76
2024/01/15 21:03:41;;;;;;;3.53;0.97;;;2.40;99.90;;;;;;5122294;27;20304;-75
2024/01/15 21:06:08;;;;;;;4.00;1.30;;;2.40;99.90;;;;;;5135437;27;20207;-75
2024/01/15 21:08:36;;;;;;;3.37;1.40;;;2.40;99.90;;;;;;5134848;27;20567;-75
2024/01/15 21:11:04;;;;;;;5.03;0.93;;;2.30;99.90;;;;;;5134791;27;20201;-75
2024/01/15 21:13:32;;;;;;;1.47;1.00;;;2.30;99.90;;;;;;5134789;27;20698;-75
2024/01/15 21:15:59;;;;;;;2.00;1.07;;;2.30;99.90;;;;;;5134863;27;20208;-75
2024/01/15 21:18:26;;;;;;;5.13;1.43;;;2.30;99.90;;;;;;5135313;27;20291;-75
2024/01/15 21:20:54;;;;;;;4.17;0.97;;;2.30;99.90;;;;;;5134639;27;20231;-74
2024/01/15 21:23:21;;;;;;;3.33;0.97;;;2.30;99.90;;;;;;5134827;27;20217;-75
2024/01/15 21:25:49;;;;;;;7.40;2.83;;;2.30;99.90;;;;;;5134640;27;20203;-75
2024/01/15 21:28:16;;;;;;;2.10;1.00;;;2.40;99.90;;;;;;5134881;27;20246;-75
2024/01/15 21:30:46;;;;;;;2.10;1.00;;;2.40;99.90;;;;;;5134529;27;20205;-74
2024/01/15 21:33:13;;;;;;;10.17;1.20;;;2.40;99.90;;;;;;5134680;27;20247;-75
2024/01/15 21:35:40;;;;;;;4.77;3.00;;;2.40;99.90;;;;;;5134432;27;20284;-74
2024/01/15 21:38:07;;;;;;;1.57;0.97;;;2.30;99.90;;;;;;5127973;27;20202;-74
2024/01/15 21:40:34;;;;;;;1.33;0.87;;;2.20;99.90;;;;;;5127256;27;20235;-74
2024/01/15 21:43:02;;;;;;;1.70;0.83;;;2.20;99.90;;;;;;5134103;27;20311;-73
2024/01/15 21:45:29;;;;;;;1.87;1.00;;;2.30;99.90;;;;;;5133890;27;20578;-74
2024/01/15 21:47:56;;;;;;;4.53;0.90;;;2.40;99.90;;;;;;5134610;27;20234;-74
2024/01/15 21:50:23;;;;;;;1.30;0.90;;;2.40;99.90;;;;;;5133791;27;20212;-74
2024/01/15 21:52:50;;;;;;;5.17;1.20;;;2.50;99.90;;;;;;5134493;27;20217;-74
2024/01/15 21:55:17;;;;;;;3.97;1.03;;;2.50;99.90;;;;;;5134361;27;20219;-74
2024/01/15 21:57:45;;;;;;;3.90;1.00;;;2.50;99.90;;;;;;5134199;27;20219;-74